METAR Formatted Surface Weather Observation
Issued by NWS

Home | Current Version | Previous Version | Text Only | Print | Product List | Glossary On
Versions: 1 2 3 4 5 6 7 8 9 10 11 12 13 14 15
204
SAUS46 KPQR 211558
MTRNUW
METAR KNUW 211556Z 10010KT 10SM SCT045 BKN110 BKN150 08/01 A2934 RMK
AO2 SLP935 T00780011 $



USA.gov is the U.S. government's official web portal to all federal, state and local government web resources and services.